Time;durP1;ratioP1;P1;durP2;ratioP2;P2;SDS_P1;SDS_P2;PMS_P1;PMS_P2;Temp;Humidity;BMP_temperature;BMP_pressure;BME280_temperature;BME280_humidity;BME280_pressure;Samples;Min_cycle;Max_cycle;Signal;HPM_P1;HPM_P2
2022/06/02 00:01:13;;;;;;;;;;;20.70;80.40;;;;;;5076712;28;19915;-65
2022/06/02 00:03:57;;;;;;;;;;;20.60;80.50;;;;;;5076525;28;19919;-65
2022/06/02 00:06:37;;;;;;;;;;;20.70;80.10;;;;;;5076400;28;19909;-63
2022/06/02 00:09:10;;;;;;;;;;;20.70;80.30;;;;;;5076695;28;19912;-63
2022/06/02 00:11:38;;;;;;;;;;;20.60;80.60;;;;;;5076463;28;19931;-62
2022/06/02 00:14:05;;;;;;;;;;;20.60;80.50;;;;;;5076543;28;19908;-62
2022/06/02 00:16:33;;;;;;;;;;;20.50;80.70;;;;;;5076449;28;19909;-70
2022/06/02 00:19:05;;;;;;;;;;;20.50;80.80;;;;;;5076342;28;19909;-64
2022/06/02 00:21:32;;;;;;;;;;;20.40;81.10;;;;;;5076303;28;19943;-64
2022/06/02 00:24:09;;;;;;;;;;;20.40;81.10;;;;;;5076498;28;20287;-64
2022/06/02 00:26:45;;;;;;;;;;;20.40;81.40;;;;;;5076086;28;19916;-64
2022/06/02 00:29:11;;;;;;;;;;;20.40;82.00;;;;;;5076509;28;20252;-65
2022/06/02 00:31:42;;;;;;;;;;;20.50;82.40;;;;;;5074819;28;19913;-63
2022/06/02 00:34:08;;;;;;;;;;;20.50;81.10;;;;;;5076028;28;19908;-63
2022/06/02 00:36:42;;;;;;;;;;;20.50;81.20;;;;;;5076074;28;19915;-63
2022/06/02 00:39:08;;;;;;;;;;;20.40;81.80;;;;;;5076183;28;19983;-63
2022/06/02 00:41:33;;;;;;;;;;;20.40;82.20;;;;;;5075662;28;20007;-64
2022/06/02 00:44:13;;;;;;;;;;;20.40;81.90;;;;;;5075895;28;20000;-62
2022/06/02 00:47:08;;;;;;;;;;;20.50;81.50;;;;;;5076202;28;20280;-63
2022/06/02 00:49:40;;;;;;;;;;;20.50;81.60;;;;;;5070480;28;19944;-63
2022/06/02 00:52:12;;;;;;;;;;;20.40;81.90;;;;;;5075172;28;19908;-64
2022/06/02 00:57:58;;;;;;;;;;;20.30;82.30;;;;;;5033902;28;20483;-62
2022/06/02 01:00:29;;;;;;;;;;;20.30;82.60;;;;;;5033480;28;20063;-62
2022/06/02 01:03:07;;;;;;;;;;;20.30;82.50;;;;;;5057815;28;19916;-63
2022/06/02 01:05:51;;;;;;;;;;;20.30;82.30;;;;;;5075619;28;20049;-63
2022/06/02 01:08:28;;;;;;;;;;;20.30;82.40;;;;;;5075526;28;19909;-63
2022/06/02 01:11:13;;;;;;;;;;;20.20;83.00;;;;;;5075315;28;19909;-63
2022/06/02 01:13:46;;;;;;;;;;;20.20;83.50;;;;;;5075535;28;19915;-62
2022/06/02 01:16:24;;;;;;;;;;;20.10;83.40;;;;;;5075520;28;19909;-62
2022/06/02 01:19:04;;;;;;;;;;;20.10;83.40;;;;;;5075188;28;19953;-63
2022/06/02 01:21:40;;;;;;;;;;;20.10;83.30;;;;;;5074928;28;19917;-63
2022/06/02 01:24:14;;;;;;;;;;;20.00;83.40;;;;;;5075369;28;20385;-63
2022/06/02 01:26:40;;;;;;;;;;;20.10;83.70;;;;;;5075190;28;19963;-62
2022/06/02 01:29:08;;;;;;;;;;;20.10;83.70;;;;;;5074872;28;19908;-63
2022/06/02 01:31:43;;;;;;;;;;;20.10;84.30;;;;;;5074801;28;20352;-64
2022/06/02 01:34:11;;;;;;;;;;;20.10;84.40;;;;;;5074787;28;20045;-62
2022/06/02 01:36:55;;;;;;;;;;;20.10;84.20;;;;;;5074879;28;19908;-62
2022/06/02 01:39:39;;;;;;;;;;;20.00;83.80;;;;;;5074654;28;19915;-62
2022/06/02 01:42:08;;;;;;;;;;;20.00;84.00;;;;;;5074465;28;19928;-63
2022/06/02 01:44:45;;;;;;;;;;;20.00;84.50;;;;;;5074849;28;19952;-63
2022/06/02 01:47:14;;;;;;;;;;;19.90;84.20;;;;;;5073378;28;20283;-63
2022/06/02 01:50:06;;;;;;;;;;;19.90;84.30;;;;;;5074750;28;20276;-62
2022/06/02 01:52:37;;;;;;;;;;;20.00;84.10;;;;;;5065781;28;19948;-64
2022/06/02 01:55:02;;;;;;;;;;;20.00;84.00;;;;;;5074587;28;19908;-65
2022/06/02 01:58:03;;;;;;;;;;;20.10;84.30;;;;;;5074699;28;19915;-61
2022/06/02 02:00:31;;;;;;;;;;;20.10;84.10;;;;;;5052266;28;19909;-63
2022/06/02 02:03:15;;;;;;;;;;;20.00;84.00;;;;;;5069347;28;20360;-62
2022/06/02 02:05:50;;;;;;;;;;;20.00;84.30;;;;;;5074549;28;19909;-63
2022/06/02 02:08:25;;;;;;;;;;;20.00;84.60;;;;;;5074704;28;19966;-63
2022/06/02 02:11:14;;;;;;;;;;;20.10;84.50;;;;;;5074114;28;19908;-64
2022/06/02 02:13:45;;;;;;;;;;;20.10;84.50;;;;;;5063752;28;19916;-62
2022/06/02 02:16:20;;;;;;;;;;;20.10;84.20;;;;;;5074273;28;19915;-62
2022/06/02 02:19:04;;;;;;;;;;;20.00;84.40;;;;;;5074423;28;19923;-62
2022/06/02 02:21:36;;;;;;;;;;;20.10;84.00;;;;;;5073781;28;19917;-63
2022/06/02 02:24:02;;;;;;;;;;;20.10;83.40;;;;;;5074273;28;19909;-62
2022/06/02 02:26:36;;;;;;;;;;;20.20;83.30;;;;;;5074008;28;19908;-63
2022/06/02 02:29:09;;;;;;;;;;;20.20;83.20;;;;;;5074006;28;20408;-62
2022/06/02 02:31:44;;;;;;;;;;;20.30;82.90;;;;;;5073847;28;19913;-62
2022/06/02 02:34:30;;;;;;;;;;;20.30;82.80;;;;;;5073714;28;19915;-65
2022/06/02 02:37:03;;;;;;;;;;;20.20;83.00;;;;;;5073919;28;20382;-62
2022/06/02 02:39:47;;;;;;;;;;;20.00;83.20;;;;;;5073811;28;19950;-64
2022/06/02 02:42:17;;;;;;;;;;;20.10;83.60;;;;;;5073400;28;19927;-63
2022/06/02 02:45:01;;;;;;;;;;;20.00;83.70;;;;;;5074010;28;19908;-62
2022/06/02 02:47:34;;;;;;;;;;;19.90;84.00;;;;;;5073713;28;20366;-62
2022/06/02 02:50:07;;;;;;;;;;;19.90;84.30;;;;;;5073548;28;19908;-66
2022/06/02 02:52:45;;;;;;;;;;;19.80;83.90;;;;;;5073955;28;20243;-61
2022/06/02 02:55:18;;;;;;;;;;;19.80;83.90;;;;;;5073472;28;19908;-64
2022/06/02 02:57:43;;;;;;;;;;;19.80;84.30;;;;;;5073867;28;19908;-64
2022/06/02 03:00:18;;;;;;;;;;;19.80;84.70;;;;;;5073703;28;19912;-62
2022/06/02 03:02:56;;;;;;;;;;;19.70;84.70;;;;;;5073721;28;19964;-64
2022/06/02 03:05:32;;;;;;;;;;;19.80;85.00;;;;;;5073908;28;19962;-63
2022/06/02 03:08:02;;;;;;;;;;;19.70;84.70;;;;;;5073376;28;20019;-62
2022/06/02 03:10:35;;;;;;;;;;;19.70;85.00;;;;;;5073558;28;19908;-63
2022/06/02 03:13:00;;;;;;;;;;;19.70;84.70;;;;;;5073425;28;19908;-62
2022/06/02 03:15:49;;;;;;;;;;;19.70;84.20;;;;;;5076953;28;19912;-63
2022/06/02 03:18:24;;;;;;;;;;;19.80;83.90;;;;;;5074122;28;19912;-62
2022/06/02 03:20:59;;;;;;;;;;;19.90;83.10;;;;;;5077654;28;20351;-66
2022/06/02 03:23:34;;;;;;;;;;;19.90;82.70;;;;;;5077317;28;20392;-62
2022/06/02 03:25:59;;;;;;;;;;;19.90;82.30;;;;;;5077359;28;19995;-63
2022/06/02 03:28:28;;;;;;;;;;;20.00;82.00;;;;;;5077256;28;19958;-64
2022/06/02 03:31:02;;;;;;;;;;;20.00;81.70;;;;;;5077228;28;19916;-62
2022/06/02 03:33:30;;;;;;;;;;;20.00;81.80;;;;;;5077320;28;20283;-62
2022/06/02 03:36:04;;;;;;;;;;;20.00;82.20;;;;;;5077215;28;19919;-63
2022/06/02 03:38:37;;;;;;;;;;;19.90;82.50;;;;;;5077057;28;19965;-62
2022/06/02 03:41:22;;;;;;;;;;;19.90;82.70;;;;;;5076684;28;20299;-62
2022/06/02 03:43:53;;;;;;;;;;;19.80;82.50;;;;;;5076632;28;19912;-64
2022/06/02 03:46:34;;;;;;;;;;;19.70;82.80;;;;;;5083329;28;19916;-63
2022/06/02 03:49:24;;;;;;;;;;;19.80;82.80;;;;;;5081902;28;19959;-63
2022/06/02 03:52:07;;;;;;;;;;;19.70;83.20;;;;;;5080731;28;19916;-63
2022/06/02 03:54:58;;;;;;;;;;;19.70;83.30;;;;;;5083419;28;19915;-64
2022/06/02 03:57:42;;;;;;;;;;;19.80;83.20;;;;;;5081122;28;20368;-62
2022/06/02 04:00:19;;;;;;;;;;;19.80;82.90;;;;;;5076640;28;19991;-65
2022/06/02 04:03:02;;;;;;;;;;;19.90;82.60;;;;;;5075482;28;20281;-66
2022/06/02 04:05:27;;;;;;;;;;;19.90;82.90;;;;;;5076832;28;20268;-64
2022/06/02 04:08:16;;;;;;;;;;;19.70;83.10;;;;;;5076646;28;19935;-63
2022/06/02 04:10:47;;;;;;;;;;;19.80;83.50;;;;;;5076923;28;19977;-63
2022/06/02 04:13:37;;;;;;;;;;;19.70;83.20;;;;;;5076374;28;19908;-63
2022/06/02 04:16:06;;;;;;;;;;;19.80;83.30;;;;;;5076679;28;19909;-63
2022/06/02 04:18:51;;;;;;;;;;;19.80;83.10;;;;;;5076325;28;19908;-62
2022/06/02 04:21:17;;;;;;;;;;;19.90;82.50;;;;;;5065143;28;20469;-62
2022/06/02 04:23:49;;;;;;;;;;;19.90;81.90;;;;;;5076415;28;19917;-63
2022/06/02 04:26:33;;;;;;;;;;;20.00;81.80;;;;;;5075575;28;19909;-64
2022/06/02 04:29:17;;;;;;;;;;;20.10;80.20;;;;;;5076180;28;20034;-63
2022/06/02 04:31:43;;;;;;;;;;;20.20;79.70;;;;;;5076259;28;19908;-63
2022/06/02 04:34:08;;;;;;;;;;;20.20;80.30;;;;;;5075317;28;19908;-61
2022/06/02 04:36:45;;;;;;;;;;;20.10;81.50;;;;;;5075982;28;19915;-63
2022/06/02 04:39:17;;;;;;;;;;;20.10;82.00;;;;;;5076229;28;19938;-64
2022/06/02 04:42:01;;;;;;;;;;;20.00;82.00;;;;;;5075578;28;19920;-64
2022/06/02 04:44:42;;;;;;;;;;;20.00;82.00;;;;;;5075817;28;19960;-64
2022/06/02 04:47:22;;;;;;;;;;;20.00;82.10;;;;;;5075905;28;19951;-64
2022/06/02 04:50:07;;;;;;;;;;;20.10;82.40;;;;;;5076018;28;19909;-63
2022/06/02 04:52:48;;;;;;;;;;;20.10;82.60;;;;;;5075895;28;20367;-61
2022/06/02 04:55:21;;;;;;;;;;;20.10;82.20;;;;;;5075432;28;19909;-63
2022/06/02 04:57:56;;;;;;;;;;;20.20;82.00;;;;;;5076102;28;19909;-62
2022/06/02 05:00:39;;;;;;;;;;;20.20;82.10;;;;;;5075825;28;19913;-62
2022/06/02 05:03:10;;;;;;;;;;;20.30;82.60;;;;;;5075602;28;20384;-61
2022/06/02 05:05:48;;;;;;;;;;;20.20;83.50;;;;;;5075382;28;19995;-63
2022/06/02 05:08:24;;;;;;;;;;;20.30;82.60;;;;;;5075662;28;19954;-63
2022/06/02 05:11:02;;;;;;;;;;;20.30;82.40;;;;;;5075543;28;20003;-62
2022/06/02 05:13:27;;;;;;;;;;;20.30;82.60;;;;;;5075295;28;19908;-62
2022/06/02 05:16:02;;;;;;;;;;;20.40;82.80;;;;;;5075538;28;19909;-62
2022/06/02 05:18:37;;;;;;;;;;;20.40;82.90;;;;;;5075348;28;19934;-64
2022/06/02 05:21:09;;;;;;;;;;;20.40;82.90;;;;;;5075354;28;19908;-62
2022/06/02 05:23:43;;;;;;;;;;;20.40;82.80;;;;;;5075091;28;19913;-63
2022/06/02 05:26:12;;;;;;;;;;;20.50;82.50;;;;;;5075097;28;20368;-63
2022/06/02 05:28:52;;;;;;;;;;;20.50;82.50;;;;;;5075351;28;19913;-63
2022/06/02 05:31:21;;;;;;;;;;;20.60;82.10;;;;;;5074702;28;19909;-64
2022/06/02 05:34:04;;;;;;;;;;;20.70;81.30;;;;;;5073607;28;20265;-64
2022/06/02 05:36:32;;;;;;;;;;;20.80;81.10;;;;;;5074883;28;20280;-62
2022/06/02 05:38:58;;;;;;;;;;;20.90;79.20;;;;;;5074944;28;19955;-63
2022/06/02 05:41:41;;;;;;;;;;;21.40;77.40;;;;;;5074408;28;19948;-63
2022/06/02 05:44:25;;;;;;;;;;;21.80;76.10;;;;;;5074675;28;19908;-62
2022/06/02 05:46:53;;;;;;;;;;;22.40;73.70;;;;;;5074719;28;19908;-64
2022/06/02 05:49:19;;;;;;;;;;;22.80;72.20;;;;;;5073184;28;19908;-60
2022/06/02 05:52:05;;;;;;;;;;;23.30;71.20;;;;;;5074710;28;19919;-61
2022/06/02 05:54:49;;;;;;;;;;;23.70;69.90;;;;;;5074630;28;20314;-59
2022/06/02 05:57:17;;;;;;;;;;;24.20;68.00;;;;;;5074292;28;19924;-67
2022/06/02 06:00:06;;;;;;;;;;;24.60;66.00;;;;;;5074151;28;19915;-60
2022/06/02 06:02:45;;;;;;;;;;;24.90;64.00;;;;;;5070887;28;20287;-59
2022/06/02 06:05:16;;;;;;;;;;;25.20;63.50;;;;;;5074102;28;19909;-65
2022/06/02 06:07:48;;;;;;;;;;;25.40;61.60;;;;;;5074063;28;19915;-60
2022/06/02 06:10:32;;;;;;;;;;;25.60;60.30;;;;;;5074489;28;19908;-62
2022/06/02 06:13:16;;;;;;;;;;;25.80;59.50;;;;;;5074591;28;20299;-59
2022/06/02 06:15:50;;;;;;;;;;;26.00;58.80;;;;;;5074155;28;19999;-61
2022/06/02 06:18:39;;;;;;;;;;;26.20;58.20;;;;;;5074123;28;19970;-69
2022/06/02 06:21:11;;;;;;;;;;;26.30;57.60;;;;;;5063664;28;19999;-73
2022/06/02 06:23:55;;;;;;;;;;;26.50;57.30;;;;;;5074006;28;19909;-78
2022/06/02 06:26:20;;;;;;;;;;;26.50;57.80;;;;;;5074484;28;19908;-63
2022/06/02 06:29:03;;;;;;;;;;;26.50;58.40;;;;;;5078001;28;20379;-60
2022/06/02 06:31:32;;;;;;;;;;;26.60;58.90;;;;;;5077172;28;20013;-62
2022/06/02 06:33:58;;;;;;;;;;;26.70;58.60;;;;;;5077579;28;20279;-64
2022/06/02 06:36:26;;;;;;;;;;;26.80;58.40;;;;;;5078774;28;19936;-71
2022/06/02 06:38:57;;;;;;;;;;;26.90;58.30;;;;;;5078473;28;19909;-62
2022/06/02 06:41:23;;;;;;;;;;;27.00;58.10;;;;;;5073564;28;19966;-62
2022/06/02 06:44:07;;;;;;;;;;;27.10;57.20;;;;;;5073930;28;19945;-70
2022/06/02 06:46:39;;;;;;;;;;;27.20;57.30;;;;;;5074167;28;20356;-67
2022/06/02 06:49:14;;;;;;;;;;;27.30;56.50;;;;;;5073118;28;19912;-68
2022/06/02 06:51:39;;;;;;;;;;;27.40;56.50;;;;;;5073958;28;19909;-69
2022/06/02 06:54:20;;;;;;;;;;;27.40;55.30;;;;;;5073470;28;20018;-67
2022/06/02 06:56:54;;;;;;;;;;;27.50;55.00;;;;;;5073796;28;19952;-67
2022/06/02 06:59:31;;;;;;;;;;;27.60;54.70;;;;;;5072842;28;19913;-66
2022/06/02 07:01:56;;;;;;;;;;;27.70;54.20;;;;;;5073001;28;19912;-66
2022/06/02 07:04:37;;;;;;;;;;;27.70;54.40;;;;;;5073146;28;20324;-66
2022/06/02 07:07:03;;;;;;;;;;;27.80;54.60;;;;;;5061813;28;20000;-66
2022/06/02 07:09:38;;;;;;;;;;;27.80;53.60;;;;;;5072951;28;19947;-66
2022/06/02 07:15:00;;;;;;;;;;;27.80;53.80;;;;;;5073288;28;19954;-65
2022/06/02 07:17:32;;;;;;;;;;;27.90;53.50;;;;;;5073244;28;19913;-66
2022/06/02 07:20:08;;;;;;;;;;;28.00;53.20;;;;;;5073299;28;19948;-65
2022/06/02 07:22:54;;;;;;;;;;;28.00;53.10;;;;;;5073625;28;19916;-68
2022/06/02 07:25:39;;;;;;;;;;;28.10;52.50;;;;;;5073408;28;20414;-68
2022/06/02 07:28:29;;;;;;;;;;;28.10;53.40;;;;;;5073368;28;19954;-66
2022/06/02 07:31:12;;;;;;;;;;;28.20;53.20;;;;;;5073574;28;19909;-67
2022/06/02 07:34:16;;;;;;;;;;;28.20;53.70;;;;;;5072648;28;19912;-70
2022/06/02 07:37:01;;;;;;;;;;;28.20;52.60;;;;;;5030815;28;19916;-68
2022/06/02 07:39:33;;;;;;;;;;;28.20;52.50;;;;;;5030824;28;19949;-67
2022/06/02 07:42:04;;;;;;;;;;;28.30;53.10;;;;;;5056717;28;19924;-67
2022/06/02 07:44:48;;;;;;;;;;;28.30;52.20;;;;;;5072950;28;19908;-69
2022/06/02 07:47:21;;;;;;;;;;;28.30;52.30;;;;;;5072644;28;20438;-69
2022/06/02 07:49:55;;;;;;;;;;;28.40;52.60;;;;;;5070243;28;19912;-68
2022/06/02 07:52:25;;;;;;;;;;;28.30;52.30;;;;;;5072605;28;20331;-68
2022/06/02 07:54:50;;;;;;;;;;;28.40;52.50;;;;;;5072768;28;19962;-69
2022/06/02 07:57:16;;;;;;;;;;;28.30;51.80;;;;;;5072455;28;19908;-68
2022/06/02 07:59:59;;;;;;;;;;;28.30;50.80;;;;;;5072534;28;19916;-65
2022/06/02 08:02:47;;;;;;;;;;;28.30;50.40;;;;;;5072936;28;20400;-66
2022/06/02 08:05:17;;;;;;;;;;;28.40;51.60;;;;;;5074339;28;19909;-68
2022/06/02 08:07:49;;;;;;;;;;;28.30;50.00;;;;;;5075149;28;20288;-66
2022/06/02 08:10:17;;;;;;;;;;;28.30;50.80;;;;;;5074124;28;19948;-69
2022/06/02 08:12:48;;;;;;;;;;;28.30;48.40;;;;;;5075659;28;19913;-67
2022/06/02 08:15:32;;;;;;;;;;;28.40;48.30;;;;;;5075981;28;20003;-68
2022/06/02 08:18:18;;;;;;;;;;;28.40;48.50;;;;;;5074072;28;19962;-69
2022/06/02 08:21:15;;;;;;;;;;;28.40;48.80;;;;;;5055044;28;19917;-72
2022/06/02 08:23:54;;;;;;;;;;;28.50;48.00;;;;;;5076078;28;19962;-70
2022/06/02 08:26:26;;;;;;;;;;;28.60;47.90;;;;;;5076760;28;20011;-70
2022/06/02 08:29:02;;;;;;;;;;;28.60;48.70;;;;;;5076329;28;19912;-68
2022/06/02 08:31:33;;;;;;;;;;;28.50;47.80;;;;;;5076101;28;20264;-69
2022/06/02 08:34:05;;;;;;;;;;;28.40;47.70;;;;;;5076557;28;19915;-71
2022/06/02 08:36:35;;;;;;;;;;;28.30;48.70;;;;;;5080266;28;19909;-70
2022/06/02 08:39:12;;;;;;;;;;;28.30;48.60;;;;;;5080128;28;19909;-70
2022/06/02 08:42:07;;;;;;;;;;;28.20;49.30;;;;;;5078438;28;19946;-73
2022/06/02 08:44:48;;;;;;;;;;;28.20;49.60;;;;;;5043604;28;19952;-69
2022/06/02 08:47:33;;;;;;;;;;;28.30;49.00;;;;;;5081949;28;19915;-75
2022/06/02 08:50:10;;;;;;;;;;;28.20;49.20;;;;;;5079404;28;20258;-71
2022/06/02 08:52:47;;;;;;;;;;;28.10;49.30;;;;;;5075791;28;19913;-76
2022/06/02 08:55:31;;;;;;;;;;;28.10;49.80;;;;;;5075983;28;20343;-66
2022/06/02 08:58:00;;;;;;;;;;;28.10;49.70;;;;;;5076507;28;19947;-65
2022/06/02 09:00:28;;;;;;;;;;;28.10;50.00;;;;;;5087462;28;19913;-68
2022/06/02 09:03:08;;;;;;;;;;;28.10;50.20;;;;;;5096421;28;19924;-64
2022/06/02 09:05:43;;;;;;;;;;;28.00;50.80;;;;;;5096860;28;19909;-68
2022/06/02 09:08:20;;;;;;;;;;;28.00;49.60;;;;;;5086217;28;19908;-71
2022/06/02 09:11:04;;;;;;;;;;;27.90;49.90;;;;;;5075415;28;20338;-69
2022/06/02 09:13:48;;;;;;;;;;;27.80;50.40;;;;;;5075251;28;19993;-66
2022/06/02 09:16:17;;;;;;;;;;;27.80;50.40;;;;;;5075433;28;19908;-68
2022/06/02 09:19:01;;;;;;;;;;;27.70;50.80;;;;;;5074855;28;19908;-70
2022/06/02 09:21:32;;;;;;;;;;;27.60;50.10;;;;;;5075439;28;19931;-68
2022/06/02 09:24:05;;;;;;;;;;;27.60;49.50;;;;;;5075288;28;20360;-72
2022/06/02 09:26:41;;;;;;;;;;;27.50;49.30;;;;;;5075227;28;19962;-72
2022/06/02 09:29:18;;;;;;;;;;;27.50;49.70;;;;;;5075233;28;20022;-73
2022/06/02 09:31:59;;;;;;;;;;;27.40;49.60;;;;;;5075610;28;19915;-70
2022/06/02 09:34:43;;;;;;;;;;;27.40;49.00;;;;;;5074944;28;20380;-73
2022/06/02 09:37:17;;;;;;;;;;;27.30;50.10;;;;;;5075235;28;19915;-71
2022/06/02 09:39:45;;;;;;;;;;;27.40;50.80;;;;;;5074755;28;19915;-74
2022/06/02 09:42:17;;;;;;;;;;;27.50;49.90;;;;;;5074665;28;19987;-71
2022/06/02 09:44:45;;;;;;;;;;;27.40;49.70;;;;;;5074974;28;20276;-68
2022/06/02 09:47:17;;;;;;;;;;;27.40;50.40;;;;;;5075142;28;19908;-69
2022/06/02 09:49:48;;;;;;;;;;;27.30;50.30;;;;;;5074825;28;19908;-69
2022/06/02 09:52:27;;;;;;;;;;;27.30;50.90;;;;;;5073320;28;20011;-69
2022/06/02 09:55:11;;;;;;;;;;;27.30;50.60;;;;;;5074656;28;19932;-71
2022/06/02 09:57:58;;;;;;;;;;;27.30;50.40;;;;;;5074879;28;19908;-71
2022/06/02 10:00:42;;;;;;;;;;;27.30;49.90;;;;;;5074874;28;19951;-72
2022/06/02 10:03:19;;;;;;;;;;;27.20;50.00;;;;;;5074284;28;19969;-72
2022/06/02 10:05:48;;;;;;;;;;;27.20;50.60;;;;;;5074539;28;20388;-71
2022/06/02 10:08:22;;;;;;;;;;;27.20;51.40;;;;;;5074207;28;19959;-73
2022/06/02 10:10:48;;;;;;;;;;;27.20;50.10;;;;;;5074333;28;20419;-71
2022/06/02 10:13:16;;;;;;;;;;;27.20;50.70;;;;;;5074072;28;19954;-67
2022/06/02 10:15:42;;;;;;;;;;;27.20;50.40;;;;;;5074154;28;19915;-71
2022/06/02 10:18:08;;;;;;;;;;;27.20;50.80;;;;;;5074079;28;19917;-69
2022/06/02 10:20:33;;;;;;;;;;;27.30;50.30;;;;;;5074284;28;19909;-69
2022/06/02 10:23:04;;;;;;;;;;;27.30;50.30;;;;;;5073449;28;20380;-71
2022/06/02 10:25:50;;;;;;;;;;;27.20;50.20;;;;;;5073717;28;19912;-70
2022/06/02 10:28:28;;;;;;;;;;;27.20;50.40;;;;;;5073959;28;19908;-69
2022/06/02 10:31:02;;;;;;;;;;;27.30;50.30;;;;;;5074332;28;19923;-68
2022/06/02 10:33:35;;;;;;;;;;;27.30;49.50;;;;;;5073982;28;19943;-73
2022/06/02 10:36:19;;;;;;;;;;;27.20;49.40;;;;;;5073786;28;19909;-72
2022/06/02 10:38:45;;;;;;;;;;;27.20;49.00;;;;;;5073658;28;19931;-69
2022/06/02 10:41:10;;;;;;;;;;;27.20;49.80;;;;;;5073607;28;20368;-67
2022/06/02 10:43:56;;;;;;;;;;;27.20;49.20;;;;;;5073271;28;20220;-70
2022/06/02 10:46:31;;;;;;;;;;;27.30;49.60;;;;;;5073785;28;19909;-68
2022/06/02 10:49:02;;;;;;;;;;;27.20;50.20;;;;;;5073702;28;19975;-70
2022/06/02 10:51:47;;;;;;;;;;;27.20;50.00;;;;;;5073859;28;19979;-68
2022/06/02 10:54:28;;;;;;;;;;;27.20;50.50;;;;;;5073866;28;19915;-69
2022/06/02 10:57:03;;;;;;;;;;;27.20;50.40;;;;;;5073669;28;19962;-68
2022/06/02 10:59:30;;;;;;;;;;;27.30;51.30;;;;;;5073543;28;19909;-69
2022/06/02 11:01:57;;;;;;;;;;;27.30;50.80;;;;;;5073421;28;19987;-67
2022/06/02 11:04:28;;;;;;;;;;;27.20;50.60;;;;;;5073737;28;19912;-69
2022/06/02 11:07:06;;;;;;;;;;;27.10;50.50;;;;;;5073580;28;19962;-70
2022/06/02 11:10:01;;;;;;;;;;;27.10;49.90;;;;;;5072264;28;19999;-70
2022/06/02 11:12:32;;;;;;;;;;;27.10;51.50;;;;;;5036063;28;19936;-61
2022/06/02 11:14:57;;;;;;;;;;;27.10;51.40;;;;;;5073392;28;19915;-60
2022/06/02 11:17:38;;;;;;;;;;;27.20;51.00;;;;;;5073511;28;19908;-61
2022/06/02 11:20:04;;;;;;;;;;;27.10;51.80;;;;;;5074293;28;19944;-59
2022/06/02 11:22:38;;;;;;;;;;;27.20;51.60;;;;;;5073526;28;20025;-59
2022/06/02 11:25:08;;;;;;;;;;;27.20;51.60;;;;;;5073334;28;20423;-62
2022/06/02 11:27:52;;;;;;;;;;;27.20;51.70;;;;;;5074335;28;20004;-62
2022/06/02 11:30:24;;;;;;;;;;;27.20;51.90;;;;;;5074317;28;19919;-61
2022/06/02 11:32:52;;;;;;;;;;;27.30;52.20;;;;;;5073862;28;20391;-62
2022/06/02 11:35:36;;;;;;;;;;;27.20;51.20;;;;;;5075371;28;20257;-61
2022/06/02 11:38:20;;;;;;;;;;;27.30;51.30;;;;;;5078199;28;19915;-64
2022/06/02 11:40:55;;;;;;;;;;;27.30;51.10;;;;;;5076984;28;20010;-64
2022/06/02 11:43:27;;;;;;;;;;;27.30;51.50;;;;;;5076935;28;19920;-62
2022/06/02 11:46:11;;;;;;;;;;;27.20;52.30;;;;;;5077126;28;20383;-65
2022/06/02 11:48:48;;;;;;;;;;;27.30;51.20;;;;;;5077354;28;20310;-61
2022/06/02 11:51:26;;;;;;;;;;;27.30;50.90;;;;;;5076909;28;19908;-67
2022/06/02 11:53:52;;;;;;;;;;;27.30;50.70;;;;;;5075908;28;19908;-63
2022/06/02 11:56:36;;;;;;;;;;;27.30;51.90;;;;;;5074950;28;20421;-66
2022/06/02 11:59:08;;;;;;;;;;;27.20;51.20;;;;;;5076156;28;19962;-68
2022/06/02 12:01:52;;;;;;;;;;;27.20;50.90;;;;;;5076164;28;19932;-67
2022/06/02 12:04:36;;;;;;;;;;;27.20;51.00;;;;;;5076198;28;19920;-64
2022/06/02 12:07:20;;;;;;;;;;;27.10;51.10;;;;;;5076714;28;19909;-65
2022/06/02 12:09:49;;;;;;;;;;;27.10;49.30;;;;;;5075754;28;19917;-66
2022/06/02 12:12:20;;;;;;;;;;;27.10;51.90;;;;;;5075866;28;19934;-65
2022/06/02 12:15:04;;;;;;;;;;;27.10;53.60;;;;;;5075882;28;20011;-67
2022/06/02 12:17:39;;;;;;;;;;;27.10;53.70;;;;;;5075968;28;19991;-68
2022/06/02 12:20:13;;;;;;;;;;;27.00;54.40;;;;;;5062114;28;19916;-67
2022/06/02 12:22:39;;;;;;;;;;;27.00;54.40;;;;;;5075908;28;20291;-67
2022/06/02 12:25:04;;;;;;;;;;;27.00;55.40;;;;;;5075838;28;19999;-66
2022/06/02 12:28:02;;;;;;;;;;;27.00;54.80;;;;;;5075599;28;19974;-67
2022/06/02 12:30:46;;;;;;;;;;;27.00;54.80;;;;;;5061834;28;19931;-65
2022/06/02 12:33:14;;;;;;;;;;;27.00;52.10;;;;;;5075628;28;20462;-62
2022/06/02 12:35:53;;;;;;;;;;;27.00;53.10;;;;;;5075757;28;19936;-64
2022/06/02 12:38:38;;;;;;;;;;;27.00;53.40;;;;;;5075852;28;19908;-65
2022/06/02 12:41:25;;;;;;;;;;;27.00;53.10;;;;;;5075246;28;19952;-77
2022/06/02 12:43:59;;;;;;;;;;;27.00;53.60;;;;;;5075913;28;20026;-80
2022/06/02 12:46:25;;;;;;;;;;;27.00;54.20;;;;;;5074658;28;19912;-70
2022/06/02 12:48:51;;;;;;;;;;;27.00;54.50;;;;;;5075481;28;19915;-74
2022/06/02 12:51:19;;;;;;;;;;;27.00;54.10;;;;;;5075494;28;19919;-72
2022/06/02 12:54:08;;;;;;;;;;;27.00;53.80;;;;;;5075020;28;19999;-66
2022/06/02 12:56:34;;;;;;;;;;;27.00;53.50;;;;;;5072099;28;19923;-72
2022/06/02 12:59:18;;;;;;;;;;;27.00;53.50;;;;;;5076193;28;19912;-73
2022/06/02 13:01:47;;;;;;;;;;;27.00;53.30;;;;;;5077538;28;20373;-68
2022/06/02 13:04:13;;;;;;;;;;;27.10;53.70;;;;;;5091369;28;19912;-67
2022/06/02 13:06:41;;;;;;;;;;;27.10;53.40;;;;;;5093656;28;19909;-68
2022/06/02 13:09:22;;;;;;;;;;;27.20;53.10;;;;;;5076040;28;19915;-72
2022/06/02 13:11:50;;;;;;;;;;;27.20;52.70;;;;;;5075827;28;20000;-71
2022/06/02 13:14:21;;;;;;;;;;;27.20;52.60;;;;;;5076122;28;19913;-71
2022/06/02 13:16:50;;;;;;;;;;;27.20;52.10;;;;;;5075552;28;19913;-75
2022/06/02 13:19:31;;;;;;;;;;;27.20;52.00;;;;;;5075403;28;20261;-73
2022/06/02 13:21:56;;;;;;;;;;;27.20;52.00;;;;;;5075080;28;19978;-73
2022/06/02 13:24:34;;;;;;;;;;;27.20;52.30;;;;;;5073431;28;19979;-71
2022/06/02 13:27:05;;;;;;;;;;;27.20;51.60;;;;;;5073422;28;19991;-77
2022/06/02 13:29:46;;;;;;;;;;;27.20;51.60;;;;;;5071778;28;19908;-78
2022/06/02 13:32:29;;;;;;;;;;;27.10;51.60;;;;;;5074476;28;19908;-78
2022/06/02 13:35:14;;;;;;;;;;;27.10;51.60;;;;;;5074432;28;19909;-78
2022/06/02 13:37:42;;;;;;;;;;;27.10;52.20;;;;;;5073351;28;20296;-78
2022/06/02 13:40:23;;;;;;;;;;;27.10;51.70;;;;;;5074243;28;19922;-78
2022/06/02 13:42:57;;;;;;;;;;;27.10;51.40;;;;;;5074912;28;19924;-78
2022/06/02 13:45:26;;;;;;;;;;;27.20;51.60;;;;;;5075489;28;19952;-78
2022/06/02 13:48:10;;;;;;;;;;;27.20;51.60;;;;;;5075337;28;19909;-78
2022/06/02 13:50:54;;;;;;;;;;;27.20;51.60;;;;;;5075691;28;19982;-77
2022/06/02 13:53:20;;;;;;;;;;;27.20;51.70;;;;;;5075902;28;19999;-77
2022/06/02 13:58:45;;;;;;;;;;;27.30;52.10;;;;;;5073600;28;19926;-78
2022/06/02 14:01:23;;;;;;;;;;;27.30;52.20;;;;;;5074363;28;20283;-76
2022/06/02 14:04:08;;;;;;;;;;;27.30;52.80;;;;;;5074453;28;19916;-78
2022/06/02 14:06:39;;;;;;;;;;;27.30;51.80;;;;;;5072134;28;19919;-78
2022/06/02 14:09:31;;;;;;;;;;;27.20;51.90;;;;;;5073779;28;19912;-77
2022/06/02 14:12:03;;;;;;;;;;;27.20;51.40;;;;;;5073778;28;19915;-78
2022/06/02 14:14:47;;;;;;;;;;;27.20;51.70;;;;;;5071223;28;19912;-78
2022/06/02 14:17:12;;;;;;;;;;;27.20;51.40;;;;;;5071731;28;19915;-77
2022/06/02 14:19:38;;;;;;;;;;;27.30;51.10;;;;;;5074656;28;19908;-77
2022/06/02 14:22:09;;;;;;;;;;;27.30;51.30;;;;;;5073562;28;19916;-79
2022/06/02 14:24:39;;;;;;;;;;;27.30;51.70;;;;;;5074063;28;19909;-76
2022/06/02 14:27:23;;;;;;;;;;;27.20;52.20;;;;;;5074282;28;20427;-79
2022/06/02 14:30:07;;;;;;;;;;;27.20;52.00;;;;;;5074066;28;20284;-77
2022/06/02 14:32:47;;;;;;;;;;;27.20;51.70;;;;;;5074074;28;20371;-78
2022/06/02 14:35:25;;;;;;;;;;;27.20;51.30;;;;;;5074112;28;19909;-78
2022/06/02 14:38:17;;;;;;;;;;;27.20;51.10;;;;;;5074181;28;20377;-77
2022/06/02 14:40:46;;;;;;;;;;;27.20;51.10;;;;;;5072207;28;20011;-75
2022/06/02 14:43:30;;;;;;;;;;;27.20;50.60;;;;;;5070464;28;19920;-78
2022/06/02 14:46:14;;;;;;;;;;;27.20;50.90;;;;;;5067821;28;20003;-71
2022/06/02 14:48:49;;;;;;;;;;;27.20;51.30;;;;;;5071550;28;19956;-71
2022/06/02 14:51:19;;;;;;;;;;;27.20;51.60;;;;;;5071675;28;19957;-74
2022/06/02 14:54:03;;;;;;;;;;;27.20;51.90;;;;;;5069286;28;19915;-73
2022/06/02 14:56:39;;;;;;;;;;;27.10;51.60;;;;;;5066834;28;19915;-78
2022/06/02 14:59:24;;;;;;;;;;;27.20;50.80;;;;;;5071399;28;20435;-76
2022/06/02 15:02:09;;;;;;;;;;;27.20;50.90;;;;;;5069890;28;19977;-77
2022/06/02 15:04:51;;;;;;;;;;;27.20;50.90;;;;;;5072093;28;19917;-78
2022/06/02 15:07:24;;;;;;;;;;;27.20;51.00;;;;;;5074631;28;19993;-76
2022/06/02 15:10:08;;;;;;;;;;;27.10;51.60;;;;;;5075436;28;19908;-76
2022/06/02 15:12:42;;;;;;;;;;;27.10;51.50;;;;;;5078654;28;20038;-78
2022/06/02 15:15:28;;;;;;;;;;;27.10;51.80;;;;;;5079453;28;19928;-78